sensor_id;sensor_type;location;lat;lon;timestamp;P1;durP1;ratioP1;P2;durP2;ratioP2
50205;SDS011;36098;48.390;10.856;2024-02-21T00:00:55;22.73;;;6.88;;
50205;SDS011;36098;48.390;10.856;2024-02-21T00:03:21;19.58;;;6.03;;
50205;SDS011;36098;48.390;10.856;2024-02-21T00:05:46;19.13;;;6.50;;
50205;SDS011;36098;48.390;10.856;2024-02-21T00:08:11;21.30;;;6.63;;
50205;SDS011;36098;48.390;10.856;2024-02-21T00:10:37;20.42;;;6.70;;
50205;SDS011;36098;48.390;10.856;2024-02-21T00:13:02;21.00;;;6.50;;
50205;SDS011;36098;48.390;10.856;2024-02-21T00:15:28;18.90;;;6.13;;
50205;SDS011;36098;48.390;10.856;2024-02-21T00:17:53;19.10;;;5.57;;
50205;SDS011;36098;48.390;10.856;2024-02-21T00:20:18;18.30;;;6.15;;
50205;SDS011;36098;48.390;10.856;2024-02-21T00:22:44;19.55;;;6.30;;
50205;SDS011;36098;48.390;10.856;2024-02-21T00:25:10;15.90;;;5.35;;
50205;SDS011;36098;48.390;10.856;2024-02-21T00:27:35;18.08;;;6.18;;
50205;SDS011;36098;48.390;10.856;2024-02-21T00:30:01;19.95;;;6.30;;
50205;SDS011;36098;48.390;10.856;2024-02-21T00:32:26;19.58;;;6.57;;
50205;SDS011;36098;48.390;10.856;2024-02-21T00:34:52;17.45;;;5.40;;
50205;SDS011;36098;48.390;10.856;2024-02-21T00:37:17;20.10;;;6.28;;
50205;SDS011;36098;48.390;10.856;2024-02-21T00:39:42;17.17;;;5.78;;
50205;SDS011;36098;48.390;10.856;2024-02-21T00:42:07;15.23;;;5.80;;
50205;SDS011;36098;48.390;10.856;2024-02-21T00:44:33;14.60;;;6.03;;
50205;SDS011;36098;48.390;10.856;2024-02-21T00:46:58;17.02;;;5.15;;
50205;SDS011;36098;48.390;10.856;2024-02-21T00:49:24;13.60;;;5.63;;
50205;SDS011;36098;48.390;10.856;2024-02-21T00:51:49;15.02;;;5.38;;
50205;SDS011;36098;48.390;10.856;2024-02-21T00:54:14;16.27;;;6.03;;
50205;SDS011;36098;48.390;10.856;2024-02-21T00:56:39;15.82;;;5.78;;
50205;SDS011;36098;48.390;10.856;2024-02-21T00:59:05;17.10;;;5.88;;
50205;SDS011;36098;48.390;10.856;2024-02-21T01:01:30;16.88;;;5.07;;
50205;SDS011;36098;48.390;10.856;2024-02-21T01:03:55;14.85;;;5.57;;
50205;SDS011;36098;48.390;10.856;2024-02-21T01:06:20;15.95;;;5.03;;
50205;SDS011;36098;48.390;10.856;2024-02-21T01:08:46;17.20;;;5.28;;
50205;SDS011;36098;48.390;10.856;2024-02-21T01:11:13;19.10;;;5.38;;
50205;SDS011;36098;48.390;10.856;2024-02-21T01:13:38;14.75;;;4.85;;
50205;SDS011;36098;48.390;10.856;2024-02-21T01:16:04;14.02;;;5.13;;
50205;SDS011;36098;48.390;10.856;2024-02-21T01:18:29;12.35;;;4.68;;
50205;SDS011;36098;48.390;10.856;2024-02-21T01:20:54;12.40;;;4.80;;
50205;SDS011;36098;48.390;10.856;2024-02-21T01:23:20;15.18;;;5.07;;
50205;SDS011;36098;48.390;10.856;2024-02-21T01:25:45;12.65;;;5.07;;
50205;SDS011;36098;48.390;10.856;2024-02-21T01:28:10;13.35;;;5.13;;
50205;SDS011;36098;48.390;10.856;2024-02-21T01:30:35;15.77;;;4.85;;
50205;SDS011;36098;48.390;10.856;2024-02-21T01:33:01;14.68;;;4.82;;
50205;SDS011;36098;48.390;10.856;2024-02-21T01:35:26;15.27;;;4.80;;
50205;SDS011;36098;48.390;10.856;2024-02-21T01:37:51;14.32;;;4.57;;
50205;SDS011;36098;48.390;10.856;2024-02-21T01:40:17;12.45;;;4.72;;
50205;SDS011;36098;48.390;10.856;2024-02-21T01:42:42;13.23;;;5.07;;
50205;SDS011;36098;48.390;10.856;2024-02-21T01:45:07;14.20;;;4.97;;
50205;SDS011;36098;48.390;10.856;2024-02-21T01:47:33;14.45;;;5.13;;
50205;SDS011;36098;48.390;10.856;2024-02-21T01:50:02;16.70;;;4.75;;
50205;SDS011;36098;48.390;10.856;2024-02-21T01:52:29;10.77;;;4.72;;
50205;SDS011;36098;48.390;10.856;2024-02-21T01:54:55;11.50;;;4.32;;
50205;SDS011;36098;48.390;10.856;2024-02-21T01:57:22;14.07;;;5.13;;
50205;SDS011;36098;48.390;10.856;2024-02-21T01:59:48;12.35;;;4.25;;
50205;SDS011;36098;48.390;10.856;2024-02-21T02:02:13;12.68;;;4.40;;
50205;SDS011;36098;48.390;10.856;2024-02-21T02:04:38;12.45;;;4.53;;
50205;SDS011;36098;48.390;10.856;2024-02-21T02:07:04;12.07;;;4.63;;
50205;SDS011;36098;48.390;10.856;2024-02-21T02:09:31;14.90;;;4.90;;
50205;SDS011;36098;48.390;10.856;2024-02-21T02:11:57;10.82;;;4.28;;
50205;SDS011;36098;48.390;10.856;2024-02-21T02:14:24;11.07;;;4.50;;
50205;SDS011;36098;48.390;10.856;2024-02-21T02:16:49;12.48;;;4.82;;
50205;SDS011;36098;48.390;10.856;2024-02-21T02:19:15;14.73;;;4.30;;
50205;SDS011;36098;48.390;10.856;2024-02-21T02:21:42;13.48;;;4.47;;
50205;SDS011;36098;48.390;10.856;2024-02-21T02:24:13;10.75;;;3.88;;
50205;SDS011;36098;48.390;10.856;2024-02-21T02:26:39;11.80;;;3.80;;
50205;SDS011;36098;48.390;10.856;2024-02-21T02:29:04;9.30;;;3.97;;
50205;SDS011;36098;48.390;10.856;2024-02-21T02:31:30;11.63;;;3.90;;
50205;SDS011;36098;48.390;10.856;2024-02-21T02:33:55;13.38;;;3.92;;
50205;SDS011;36098;48.390;10.856;2024-02-21T02:36:20;9.80;;;3.78;;
50205;SDS011;36098;48.390;10.856;2024-02-21T02:38:46;9.48;;;3.83;;
50205;SDS011;36098;48.390;10.856;2024-02-21T02:41:11;12.02;;;4.03;;
50205;SDS011;36098;48.390;10.856;2024-02-21T02:43:36;11.52;;;3.63;;
50205;SDS011;36098;48.390;10.856;2024-02-21T02:46:02;10.95;;;3.88;;
50205;SDS011;36098;48.390;10.856;2024-02-21T02:48:28;9.25;;;3.47;;
50205;SDS011;36098;48.390;10.856;2024-02-21T02:50:54;10.25;;;3.70;;
50205;SDS011;36098;48.390;10.856;2024-02-21T02:53:19;9.75;;;3.55;;
50205;SDS011;36098;48.390;10.856;2024-02-21T02:55:44;9.20;;;4.20;;
50205;SDS011;36098;48.390;10.856;2024-02-21T02:58:09;8.48;;;3.35;;
50205;SDS011;36098;48.390;10.856;2024-02-21T03:00:35;9.20;;;3.70;;
50205;SDS011;36098;48.390;10.856;2024-02-21T03:03:01;9.27;;;3.88;;
50205;SDS011;36098;48.390;10.856;2024-02-21T03:05:28;7.78;;;3.75;;
50205;SDS011;36098;48.390;10.856;2024-02-21T03:07:54;7.78;;;3.45;;
50205;SDS011;36098;48.390;10.856;2024-02-21T03:10:20;9.00;;;3.13;;
50205;SDS011;36098;48.390;10.856;2024-02-21T03:12:45;8.98;;;3.25;;
50205;SDS011;36098;48.390;10.856;2024-02-21T03:15:11;11.32;;;3.00;;
50205;SDS011;36098;48.390;10.856;2024-02-21T03:17:37;8.23;;;3.30;;
50205;SDS011;36098;48.390;10.856;2024-02-21T03:20:02;8.57;;;3.28;;
50205;SDS011;36098;48.390;10.856;2024-02-21T03:22:34;11.55;;;3.60;;
50205;SDS011;36098;48.390;10.856;2024-02-21T03:25:00;8.88;;;3.72;;
50205;SDS011;36098;48.390;10.856;2024-02-21T03:27:25;10.13;;;3.30;;
50205;SDS011;36098;48.390;10.856;2024-02-21T03:29:50;10.02;;;3.67;;
50205;SDS011;36098;48.390;10.856;2024-02-21T03:32:16;7.43;;;2.97;;
50205;SDS011;36098;48.390;10.856;2024-02-21T03:34:41;8.65;;;3.35;;
50205;SDS011;36098;48.390;10.856;2024-02-21T03:37:06;7.50;;;3.33;;
50205;SDS011;36098;48.390;10.856;2024-02-21T03:39:31;7.20;;;3.20;;
50205;SDS011;36098;48.390;10.856;2024-02-21T03:41:57;7.00;;;2.92;;
50205;SDS011;36098;48.390;10.856;2024-02-21T03:44:23;9.13;;;3.33;;
50205;SDS011;36098;48.390;10.856;2024-02-21T03:46:48;9.60;;;3.42;;
50205;SDS011;36098;48.390;10.856;2024-02-21T03:49:13;8.65;;;3.50;;
50205;SDS011;36098;48.390;10.856;2024-02-21T03:51:39;6.47;;;2.78;;
50205;SDS011;36098;48.390;10.856;2024-02-21T03:54:04;10.05;;;3.35;;
50205;SDS011;36098;48.390;10.856;2024-02-21T03:56:29;7.50;;;3.50;;
50205;SDS011;36098;48.390;10.856;2024-02-21T03:58:55;8.88;;;3.40;;
50205;SDS011;36098;48.390;10.856;2024-02-21T04:01:20;10.45;;;3.42;;
50205;SDS011;36098;48.390;10.856;2024-02-21T04:03:45;7.07;;;3.22;;
50205;SDS011;36098;48.390;10.856;2024-02-21T04:06:11;10.98;;;3.22;;
50205;SDS011;36098;48.390;10.856;2024-02-21T04:08:37;9.07;;;3.08;;
50205;SDS011;36098;48.390;10.856;2024-02-21T04:11:02;8.50;;;3.40;;
50205;SDS011;36098;48.390;10.856;2024-02-21T04:13:28;5.55;;;2.63;;
50205;SDS011;36098;48.390;10.856;2024-02-21T04:15:53;9.75;;;3.10;;
50205;SDS011;36098;48.390;10.856;2024-02-21T04:18:18;7.47;;;3.22;;
50205;SDS011;36098;48.390;10.856;2024-02-21T04:20:44;6.47;;;2.50;;
50205;SDS011;36098;48.390;10.856;2024-02-21T04:23:09;9.07;;;3.10;;
50205;SDS011;36098;48.390;10.856;2024-02-21T04:25:35;6.65;;;2.50;;
50205;SDS011;36098;48.390;10.856;2024-02-21T04:28:00;7.60;;;2.72;;
50205;SDS011;36098;48.390;10.856;2024-02-21T04:30:26;8.02;;;2.95;;
50205;SDS011;36098;48.390;10.856;2024-02-21T04:32:51;7.30;;;3.08;;
50205;SDS011;36098;48.390;10.856;2024-02-21T04:35:16;7.70;;;2.67;;
50205;SDS011;36098;48.390;10.856;2024-02-21T04:37:42;10.05;;;3.00;;
50205;SDS011;36098;48.390;10.856;2024-02-21T04:40:07;7.20;;;2.58;;
50205;SDS011;36098;48.390;10.856;2024-02-21T04:42:34;7.00;;;3.00;;
50205;SDS011;36098;48.390;10.856;2024-02-21T04:44:59;5.18;;;2.65;;
50205;SDS011;36098;48.390;10.856;2024-02-21T04:47:24;9.02;;;2.67;;
50205;SDS011;36098;48.390;10.856;2024-02-21T04:49:50;8.00;;;3.00;;
50205;SDS011;36098;48.390;10.856;2024-02-21T04:52:15;8.48;;;2.72;;
50205;SDS011;36098;48.390;10.856;2024-02-21T04:54:40;7.90;;;2.67;;
50205;SDS011;36098;48.390;10.856;2024-02-21T04:57:06;7.65;;;2.72;;
50205;SDS011;36098;48.390;10.856;2024-02-21T04:59:31;8.70;;;3.00;;
50205;SDS011;36098;48.390;10.856;2024-02-21T05:01:57;8.07;;;2.63;;
50205;SDS011;36098;48.390;10.856;2024-02-21T05:04:23;6.35;;;2.22;;
50205;SDS011;36098;48.390;10.856;2024-02-21T05:06:49;8.55;;;2.67;;
50205;SDS011;36098;48.390;10.856;2024-02-21T05:09:14;7.78;;;2.97;;
50205;SDS011;36098;48.390;10.856;2024-02-21T05:11:39;6.13;;;2.35;;
50205;SDS011;36098;48.390;10.856;2024-02-21T05:14:04;6.65;;;2.35;;
50205;SDS011;36098;48.390;10.856;2024-02-21T05:16:30;5.88;;;2.50;;
50205;SDS011;36098;48.390;10.856;2024-02-21T05:18:56;9.10;;;3.05;;
50205;SDS011;36098;48.390;10.856;2024-02-21T05:21:25;8.25;;;2.72;;
50205;SDS011;36098;48.390;10.856;2024-02-21T05:23:50;6.95;;;2.67;;
50205;SDS011;36098;48.390;10.856;2024-02-21T05:26:23;5.78;;;2.38;;
50205;SDS011;36098;48.390;10.856;2024-02-21T05:28:49;7.22;;;2.55;;
50205;SDS011;36098;48.390;10.856;2024-02-21T05:31:15;6.10;;;2.50;;
50205;SDS011;36098;48.390;10.856;2024-02-21T05:33:41;6.97;;;2.45;;
50205;SDS011;36098;48.390;10.856;2024-02-21T05:36:07;6.22;;;2.50;;
50205;SDS011;36098;48.390;10.856;2024-02-21T05:38:32;4.47;;;2.10;;
50205;SDS011;36098;48.390;10.856;2024-02-21T05:40:57;6.82;;;2.63;;
50205;SDS011;36098;48.390;10.856;2024-02-21T05:43:23;5.35;;;2.15;;
50205;SDS011;36098;48.390;10.856;2024-02-21T05:45:48;4.88;;;1.92;;
50205;SDS011;36098;48.390;10.856;2024-02-21T05:48:13;4.45;;;2.30;;
50205;SDS011;36098;48.390;10.856;2024-02-21T05:50:39;5.18;;;2.13;;
50205;SDS011;36098;48.390;10.856;2024-02-21T05:53:04;4.85;;;1.80;;
50205;SDS011;36098;48.390;10.856;2024-02-21T05:55:29;5.90;;;2.60;;
50205;SDS011;36098;48.390;10.856;2024-02-21T05:57:55;6.13;;;2.20;;
50205;SDS011;36098;48.390;10.856;2024-02-21T06:00:20;4.60;;;2.00;;
50205;SDS011;36098;48.390;10.856;2024-02-21T06:02:46;4.65;;;2.10;;
50205;SDS011;36098;48.390;10.856;2024-02-21T06:05:11;6.00;;;2.00;;
50205;SDS011;36098;48.390;10.856;2024-02-21T06:07:36;6.30;;;2.05;;
50205;SDS011;36098;48.390;10.856;2024-02-21T06:10:02;4.78;;;1.88;;
50205;SDS011;36098;48.390;10.856;2024-02-21T06:12:28;5.35;;;2.33;;
50205;SDS011;36098;48.390;10.856;2024-02-21T06:14:53;5.25;;;2.13;;
50205;SDS011;36098;48.390;10.856;2024-02-21T06:17:19;5.50;;;2.08;;
50205;SDS011;36098;48.390;10.856;2024-02-21T06:19:44;5.30;;;1.95;;
50205;SDS011;36098;48.390;10.856;2024-02-21T06:22:10;4.63;;;2.20;;
50205;SDS011;36098;48.390;10.856;2024-02-21T06:24:35;3.83;;;1.98;;
50205;SDS011;36098;48.390;10.856;2024-02-21T06:27:02;7.22;;;2.30;;
50205;SDS011;36098;48.390;10.856;2024-02-21T06:29:28;5.13;;;1.95;;
50205;SDS011;36098;48.390;10.856;2024-02-21T06:31:53;4.13;;;2.00;;
50205;SDS011;36098;48.390;10.856;2024-02-21T06:34:19;5.35;;;1.80;;
50205;SDS011;36098;48.390;10.856;2024-02-21T06:36:44;5.60;;;2.30;;
50205;SDS011;36098;48.390;10.856;2024-02-21T06:39:10;4.50;;;2.15;;
50205;SDS011;36098;48.390;10.856;2024-02-21T06:41:36;4.68;;;2.28;;
50205;SDS011;36098;48.390;10.856;2024-02-21T06:44:02;3.92;;;1.92;;
50205;SDS011;36098;48.390;10.856;2024-02-21T06:46:28;3.78;;;1.63;;
50205;SDS011;36098;48.390;10.856;2024-02-21T06:48:54;4.45;;;2.08;;
50205;SDS011;36098;48.390;10.856;2024-02-21T06:51:21;4.20;;;1.67;;
50205;SDS011;36098;48.390;10.856;2024-02-21T06:53:47;4.45;;;1.73;;
50205;SDS011;36098;48.390;10.856;2024-02-21T06:56:12;4.35;;;2.20;;
50205;SDS011;36098;48.390;10.856;2024-02-21T06:58:37;3.78;;;1.98;;
50205;SDS011;36098;48.390;10.856;2024-02-21T07:01:03;5.55;;;2.20;;
50205;SDS011;36098;48.390;10.856;2024-02-21T07:03:28;3.78;;;1.92;;
50205;SDS011;36098;48.390;10.856;2024-02-21T07:05:53;6.93;;;1.88;;
50205;SDS011;36098;48.390;10.856;2024-02-21T07:08:19;5.10;;;1.88;;
50205;SDS011;36098;48.390;10.856;2024-02-21T07:10:44;7.93;;;2.00;;
50205;SDS011;36098;48.390;10.856;2024-02-21T07:13:09;3.53;;;1.77;;
50205;SDS011;36098;48.390;10.856;2024-02-21T07:15:34;5.22;;;1.85;;
50205;SDS011;36098;48.390;10.856;2024-02-21T07:18:01;4.75;;;2.35;;
50205;SDS011;36098;48.390;10.856;2024-02-21T07:20:26;5.65;;;2.00;;
50205;SDS011;36098;48.390;10.856;2024-02-21T07:22:52;4.35;;;1.80;;
50205;SDS011;36098;48.390;10.856;2024-02-21T07:25:17;5.43;;;1.98;;
50205;SDS011;36098;48.390;10.856;2024-02-21T07:27:43;4.55;;;1.80;;
50205;SDS011;36098;48.390;10.856;2024-02-21T07:30:09;6.38;;;2.08;;
50205;SDS011;36098;48.390;10.856;2024-02-21T07:32:34;4.40;;;1.60;;
50205;SDS011;36098;48.390;10.856;2024-02-21T07:35:00;4.72;;;1.92;;
50205;SDS011;36098;48.390;10.856;2024-02-21T07:37:25;5.13;;;1.70;;
50205;SDS011;36098;48.390;10.856;2024-02-21T07:39:50;5.88;;;2.13;;
50205;SDS011;36098;48.390;10.856;2024-02-21T07:42:16;6.55;;;1.92;;
50205;SDS011;36098;48.390;10.856;2024-02-21T07:44:41;4.47;;;1.73;;
50205;SDS011;36098;48.390;10.856;2024-02-21T07:47:06;4.00;;;1.63;;
50205;SDS011;36098;48.390;10.856;2024-02-21T07:49:32;3.95;;;2.00;;
50205;SDS011;36098;48.390;10.856;2024-02-21T07:51:57;4.05;;;1.77;;
50205;SDS011;36098;48.390;10.856;2024-02-21T07:54:25;4.88;;;1.75;;
50205;SDS011;36098;48.390;10.856;2024-02-21T07:56:50;3.75;;;1.70;;
50205;SDS011;36098;48.390;10.856;2024-02-21T07:59:15;3.70;;;2.05;;
50205;SDS011;36098;48.390;10.856;2024-02-21T08:01:41;3.50;;;1.60;;
50205;SDS011;36098;48.390;10.856;2024-02-21T08:04:06;4.43;;;1.73;;
50205;SDS011;36098;48.390;10.856;2024-02-21T08:06:31;2.85;;;1.60;;
50205;SDS011;36098;48.390;10.856;2024-02-21T08:08:57;4.05;;;1.63;;
50205;SDS011;36098;48.390;10.856;2024-02-21T08:11:22;3.90;;;1.42;;
50205;SDS011;36098;48.390;10.856;2024-02-21T08:13:47;4.78;;;1.63;;
50205;SDS011;36098;48.390;10.856;2024-02-21T08:16:13;3.60;;;1.75;;
50205;SDS011;36098;48.390;10.856;2024-02-21T08:18:38;2.50;;;1.40;;
50205;SDS011;36098;48.390;10.856;2024-02-21T08:21:03;4.07;;;1.67;;
50205;SDS011;36098;48.390;10.856;2024-02-21T08:23:29;3.40;;;1.65;;
50205;SDS011;36098;48.390;10.856;2024-02-21T08:25:54;3.45;;;1.60;;
50205;SDS011;36098;48.390;10.856;2024-02-21T08:28:19;3.97;;;1.35;;
50205;SDS011;36098;48.390;10.856;2024-02-21T08:30:45;5.10;;;1.50;;
50205;SDS011;36098;48.390;10.856;2024-02-21T08:33:13;3.78;;;1.38;;
50205;SDS011;36098;48.390;10.856;2024-02-21T08:35:41;3.40;;;1.55;;
50205;SDS011;36098;48.390;10.856;2024-02-21T08:38:07;2.78;;;1.67;;
50205;SDS011;36098;48.390;10.856;2024-02-21T08:40:32;2.85;;;1.52;;
50205;SDS011;36098;48.390;10.856;2024-02-21T08:43:00;4.13;;;1.65;;
50205;SDS011;36098;48.390;10.856;2024-02-21T08:45:25;2.58;;;1.23;;
50205;SDS011;36098;48.390;10.856;2024-02-21T08:47:50;4.00;;;1.33;;
50205;SDS011;36098;48.390;10.856;2024-02-21T08:50:15;3.53;;;1.67;;
50205;SDS011;36098;48.390;10.856;2024-02-21T08:52:41;3.42;;;1.45;;
50205;SDS011;36098;48.390;10.856;2024-02-21T08:55:07;3.65;;;1.63;;
50205;SDS011;36098;48.390;10.856;2024-02-21T08:57:32;2.58;;;1.48;;
50205;SDS011;36098;48.390;10.856;2024-02-21T09:00:04;4.18;;;1.65;;
50205;SDS011;36098;48.390;10.856;2024-02-21T09:02:39;7.90;;;1.58;;
50205;SDS011;36098;48.390;10.856;2024-02-21T09:05:05;5.22;;;1.52;;
50205;SDS011;36098;48.390;10.856;2024-02-21T09:07:31;5.65;;;1.35;;
50205;SDS011;36098;48.390;10.856;2024-02-21T09:09:56;3.95;;;1.67;;
50205;SDS011;36098;48.390;10.856;2024-02-21T09:12:22;2.88;;;1.35;;
50205;SDS011;36098;48.390;10.856;2024-02-21T09:14:47;3.15;;;1.52;;
50205;SDS011;36098;48.390;10.856;2024-02-21T09:17:15;3.58;;;1.30;;
50205;SDS011;36098;48.390;10.856;2024-02-21T09:19:42;3.17;;;1.35;;
50205;SDS011;36098;48.390;10.856;2024-02-21T09:22:07;3.00;;;1.55;;
50205;SDS011;36098;48.390;10.856;2024-02-21T09:24:33;7.47;;;1.40;;
50205;SDS011;36098;48.390;10.856;2024-02-21T09:26:58;3.40;;;1.20;;
50205;SDS011;36098;48.390;10.856;2024-02-21T09:29:23;2.00;;;1.08;;
50205;SDS011;36098;48.390;10.856;2024-02-21T09:31:49;4.43;;;1.52;;
50205;SDS011;36098;48.390;10.856;2024-02-21T09:34:14;2.78;;;1.20;;
50205;SDS011;36098;48.390;10.856;2024-02-21T09:36:39;2.38;;;1.40;;
50205;SDS011;36098;48.390;10.856;2024-02-21T09:39:05;3.05;;;1.20;;
50205;SDS011;36098;48.390;10.856;2024-02-21T09:41:30;5.70;;;1.30;;
50205;SDS011;36098;48.390;10.856;2024-02-21T09:44:00;2.10;;;1.15;;
50205;SDS011;36098;48.390;10.856;2024-02-21T09:46:39;2.63;;;1.35;;
50205;SDS011;36098;48.390;10.856;2024-02-21T09:49:25;3.70;;;1.20;;
50205;SDS011;36098;48.390;10.856;2024-02-21T09:51:56;4.95;;;1.40;;
50205;SDS011;36098;48.390;10.856;2024-02-21T09:54:24;3.33;;;1.35;;
50205;SDS011;36098;48.390;10.856;2024-02-21T09:56:49;3.88;;;1.20;;
50205;SDS011;36098;48.390;10.856;2024-02-21T09:59:15;8.85;;;1.33;;
50205;SDS011;36098;48.390;10.856;2024-02-21T10:01:42;9.00;;;1.25;;
50205;SDS011;36098;48.390;10.856;2024-02-21T10:04:08;3.67;;;1.33;;
50205;SDS011;36098;48.390;10.856;2024-02-21T10:06:34;3.38;;;1.25;;
50205;SDS011;36098;48.390;10.856;2024-02-21T10:08:59;3.28;;;1.42;;
50205;SDS011;36098;48.390;10.856;2024-02-21T10:11:25;5.55;;;1.58;;
50205;SDS011;36098;48.390;10.856;2024-02-21T10:13:51;6.13;;;1.92;;
50205;SDS011;36098;48.390;10.856;2024-02-21T10:16:16;7.50;;;1.92;;
50205;SDS011;36098;48.390;10.856;2024-02-21T10:18:42;4.75;;;2.25;;
50205;SDS011;36098;48.390;10.856;2024-02-21T10:21:07;12.00;;;2.88;;
50205;SDS011;36098;48.390;10.856;2024-02-21T10:23:46;8.32;;;3.42;;
50205;SDS011;36098;48.390;10.856;2024-02-21T10:26:13;61.03;;;54.60;;
50205;SDS011;36098;48.390;10.856;2024-02-21T10:28:39;28.67;;;22.65;;
50205;SDS011;36098;48.390;10.856;2024-02-21T10:31:09;41.53;;;36.17;;
50205;SDS011;36098;48.390;10.856;2024-02-21T10:33:35;47.88;;;39.15;;
50205;SDS011;36098;48.390;10.856;2024-02-21T10:36:07;46.05;;;39.45;;
50205;SDS011;36098;48.390;10.856;2024-02-21T10:38:35;42.10;;;37.03;;
50205;SDS011;36098;48.390;10.856;2024-02-21T10:41:01;46.25;;;37.72;;
50205;SDS011;36098;48.390;10.856;2024-02-21T10:43:29;41.72;;;35.90;;
50205;SDS011;36098;48.390;10.856;2024-02-21T10:45:58;42.75;;;36.00;;
50205;SDS011;36098;48.390;10.856;2024-02-21T10:48:29;43.28;;;34.03;;
50205;SDS011;36098;48.390;10.856;2024-02-21T10:51:05;37.20;;;31.20;;
50205;SDS011;36098;48.390;10.856;2024-02-21T10:56:29;37.83;;;30.88;;
50205;SDS011;36098;48.390;10.856;2024-02-21T10:59:02;36.22;;;29.73;;
50205;SDS011;36098;48.390;10.856;2024-02-21T11:01:29;35.72;;;28.77;;
50205;SDS011;36098;48.390;10.856;2024-02-21T11:03:57;32.72;;;28.45;;
50205;SDS011;36098;48.390;10.856;2024-02-21T11:06:26;32.40;;;27.60;;
50205;SDS011;36098;48.390;10.856;2024-02-21T11:09:02;32.55;;;27.45;;
50205;SDS011;36098;48.390;10.856;2024-02-21T11:11:29;29.63;;;26.40;;
50205;SDS011;36098;48.390;10.856;2024-02-21T11:16:45;28.30;;;23.85;;
50205;SDS011;36098;48.390;10.856;2024-02-21T11:21:49;27.70;;;23.23;;
50205;SDS011;36098;48.390;10.856;2024-02-21T11:24:30;26.25;;;22.63;;
50205;SDS011;36098;48.390;10.856;2024-02-21T11:27:11;24.70;;;20.75;;
50205;SDS011;36098;48.390;10.856;2024-02-21T11:29:46;23.23;;;19.33;;
50205;SDS011;36098;48.390;10.856;2024-02-21T11:32:14;23.38;;;20.25;;
50205;SDS011;36098;48.390;10.856;2024-02-21T11:34:40;22.67;;;19.63;;
50205;SDS011;36098;48.390;10.856;2024-02-21T11:37:15;22.88;;;18.90;;
50205;SDS011;36098;48.390;10.856;2024-02-21T11:39:41;24.17;;;19.00;;
50205;SDS011;36098;48.390;10.856;2024-02-21T11:42:07;21.20;;;17.00;;
50205;SDS011;36098;48.390;10.856;2024-02-21T11:44:34;20.35;;;17.58;;
50205;SDS011;36098;48.390;10.856;2024-02-21T11:47:01;22.92;;;16.52;;
50205;SDS011;36098;48.390;10.856;2024-02-21T11:49:28;19.13;;;16.10;;
50205;SDS011;36098;48.390;10.856;2024-02-21T11:52:00;17.88;;;15.00;;
50205;SDS011;36098;48.390;10.856;2024-02-21T11:54:27;18.87;;;15.10;;
50205;SDS011;36098;48.390;10.856;2024-02-21T11:56:53;16.15;;;14.00;;
50205;SDS011;36098;48.390;10.856;2024-02-21T11:59:18;16.65;;;14.32;;
50205;SDS011;36098;48.390;10.856;2024-02-21T12:01:44;15.27;;;12.60;;
50205;SDS011;36098;48.390;10.856;2024-02-21T12:04:09;15.27;;;12.65;;
50205;SDS011;36098;48.390;10.856;2024-02-21T12:06:35;14.88;;;12.13;;
50205;SDS011;36098;48.390;10.856;2024-02-21T12:09:00;13.38;;;11.80;;
50205;SDS011;36098;48.390;10.856;2024-02-21T12:11:26;14.13;;;11.48;;
50205;SDS011;36098;48.390;10.856;2024-02-21T12:14:01;13.45;;;11.05;;
50205;SDS011;36098;48.390;10.856;2024-02-21T12:16:29;11.57;;;10.20;;
50205;SDS011;36098;48.390;10.856;2024-02-21T12:18:58;12.98;;;9.85;;
50205;SDS011;36098;48.390;10.856;2024-02-21T12:21:31;11.35;;;9.00;;
50205;SDS011;36098;48.390;10.856;2024-02-21T12:24:15;11.85;;;8.80;;
50205;SDS011;36098;48.390;10.856;2024-02-21T12:26:42;9.82;;;8.43;;
50205;SDS011;36098;48.390;10.856;2024-02-21T12:29:08;9.15;;;7.78;;
50205;SDS011;36098;48.390;10.856;2024-02-21T12:31:37;10.20;;;7.88;;
50205;SDS011;36098;48.390;10.856;2024-02-21T12:34:03;8.63;;;7.30;;
50205;SDS011;36098;48.390;10.856;2024-02-21T12:36:29;9.85;;;7.40;;
50205;SDS011;36098;48.390;10.856;2024-02-21T12:38:55;8.18;;;6.72;;
50205;SDS011;36098;48.390;10.856;2024-02-21T12:41:20;8.68;;;6.18;;
50205;SDS011;36098;48.390;10.856;2024-02-21T12:43:45;7.60;;;6.22;;
50205;SDS011;36098;48.390;10.856;2024-02-21T12:46:12;7.72;;;6.45;;
50205;SDS011;36098;48.390;10.856;2024-02-21T12:48:37;6.93;;;5.22;;
50205;SDS011;36098;48.390;10.856;2024-02-21T12:51:02;6.22;;;5.35;;
50205;SDS011;36098;48.390;10.856;2024-02-21T12:53:29;5.95;;;4.95;;
50205;SDS011;36098;48.390;10.856;2024-02-21T12:55:55;6.35;;;4.78;;
50205;SDS011;36098;48.390;10.856;2024-02-21T12:58:21;5.78;;;4.80;;
50205;SDS011;36098;48.390;10.856;2024-02-21T13:00:46;5.50;;;4.32;;
50205;SDS011;36098;48.390;10.856;2024-02-21T13:03:12;5.15;;;3.97;;
50205;SDS011;36098;48.390;10.856;2024-02-21T13:05:37;5.53;;;4.00;;
50205;SDS011;36098;48.390;10.856;2024-02-21T13:08:03;5.38;;;4.20;;
50205;SDS011;36098;48.390;10.856;2024-02-21T13:10:30;5.20;;;3.60;;
50205;SDS011;36098;48.390;10.856;2024-02-21T13:12:55;6.22;;;3.85;;
50205;SDS011;36098;48.390;10.856;2024-02-21T13:15:20;4.47;;;3.42;;
50205;SDS011;36098;48.390;10.856;2024-02-21T13:17:46;4.93;;;3.00;;
50205;SDS011;36098;48.390;10.856;2024-02-21T13:20:11;3.40;;;2.78;;
50205;SDS011;36098;48.390;10.856;2024-02-21T13:22:37;3.60;;;2.58;;
50205;SDS011;36098;48.390;10.856;2024-02-21T13:25:03;5.47;;;2.95;;
50205;SDS011;36098;48.390;10.856;2024-02-21T13:27:29;3.45;;;2.50;;
50205;SDS011;36098;48.390;10.856;2024-02-21T13:29:55;6.25;;;2.40;;
50205;SDS011;36098;48.390;10.856;2024-02-21T13:32:20;4.70;;;2.28;;
50205;SDS011;36098;48.390;10.856;2024-02-21T13:34:46;4.10;;;2.17;;
50205;SDS011;36098;48.390;10.856;2024-02-21T13:37:11;3.55;;;1.90;;
50205;SDS011;36098;48.390;10.856;2024-02-21T13:39:36;2.78;;;1.80;;
50205;SDS011;36098;48.390;10.856;2024-02-21T13:42:02;5.53;;;1.70;;
50205;SDS011;36098;48.390;10.856;2024-02-21T13:44:30;2.78;;;1.60;;
50205;SDS011;36098;48.390;10.856;2024-02-21T13:46:55;2.67;;;1.70;;
50205;SDS011;36098;48.390;10.856;2024-02-21T13:49:21;4.68;;;1.60;;
50205;SDS011;36098;48.390;10.856;2024-02-21T13:51:46;571.50;;;150.85;;
50205;SDS011;36098;48.390;10.856;2024-02-21T13:54:12;233.50;;;52.03;;
50205;SDS011;36098;48.390;10.856;2024-02-21T13:56:39;145.15;;;33.47;;
50205;SDS011;36098;48.390;10.856;2024-02-21T13:59:04;145.68;;;32.25;;
50205;SDS011;36098;48.390;10.856;2024-02-21T14:01:30;156.23;;;34.95;;
50205;SDS011;36098;48.390;10.856;2024-02-21T14:03:57;119.68;;;28.63;;
50205;SDS011;36098;48.390;10.856;2024-02-21T14:06:22;109.28;;;26.33;;
50205;SDS011;36098;48.390;10.856;2024-02-21T14:08:47;117.53;;;26.95;;
50205;SDS011;36098;48.390;10.856;2024-02-21T14:11:12;108.90;;;24.75;;
50205;SDS011;36098;48.390;10.856;2024-02-21T14:13:39;102.50;;;25.10;;
50205;SDS011;36098;48.390;10.856;2024-02-21T14:16:08;83.85;;;22.38;;
50205;SDS011;36098;48.390;10.856;2024-02-21T14:18:36;84.93;;;20.63;;
50205;SDS011;36098;48.390;10.856;2024-02-21T14:21:02;79.22;;;20.73;;
50205;SDS011;36098;48.390;10.856;2024-02-21T14:23:28;73.93;;;19.45;;
50205;SDS011;36098;48.390;10.856;2024-02-21T14:25:54;74.20;;;18.90;;
50205;SDS011;36098;48.390;10.856;2024-02-21T14:28:19;56.83;;;16.42;;